sensor_id;sensor_type;location;lat;lon;timestamp;pressure;altitude;pressure_sealevel;temperature
62611;BMP280;48683;48.084;17.272;2022-11-14T00:00:31;101545.47;;;5.53
62611;BMP280;48683;48.084;17.272;2022-11-14T00:02:59;101540.00;;;5.50
62611;BMP280;48683;48.084;17.272;2022-11-14T00:05:25;101542.31;;;5.60
62611;BMP280;48683;48.084;17.272;2022-11-14T00:07:50;101532.28;;;5.57
62611;BMP280;48683;48.084;17.272;2022-11-14T00:10:15;101539.31;;;5.61
62611;BMP280;48683;48.084;17.272;2022-11-14T00:12:41;101534.78;;;5.62
62611;BMP280;48683;48.084;17.272;2022-11-14T00:15:06;101541.81;;;5.66
62611;BMP280;48683;48.084;17.272;2022-11-14T00:17:32;101548.72;;;5.67
62611;BMP280;48683;48.084;17.272;2022-11-14T00:19:57;101552.63;;;5.70
62611;BMP280;48683;48.084;17.272;2022-11-14T00:22:22;101555.13;;;5.75
62611;BMP280;48683;48.084;17.272;2022-11-14T00:24:47;101553.38;;;5.79
62611;BMP280;48683;48.084;17.272;2022-11-14T00:27:13;101554.91;;;5.89
62611;BMP280;48683;48.084;17.272;2022-11-14T00:29:38;101561.66;;;5.95
62611;BMP280;48683;48.084;17.272;2022-11-14T00:32:03;101555.84;;;5.84
62611;BMP280;48683;48.084;17.272;2022-11-14T00:34:29;101550.22;;;5.77
62611;BMP280;48683;48.084;17.272;2022-11-14T00:36:54;101556.50;;;5.81
62611;BMP280;48683;48.084;17.272;2022-11-14T00:39:19;101548.00;;;5.88
62611;BMP280;48683;48.084;17.272;2022-11-14T00:41:44;101551.81;;;5.87
62611;BMP280;48683;48.084;17.272;2022-11-14T00:44:09;101546.75;;;5.94
62611;BMP280;48683;48.084;17.272;2022-11-14T00:46:35;101553.97;;;5.85
62611;BMP280;48683;48.084;17.272;2022-11-14T00:49:00;101543.16;;;5.81
62611;BMP280;48683;48.084;17.272;2022-11-14T00:51:26;101550.69;;;5.88
62611;BMP280;48683;48.084;17.272;2022-11-14T00:53:51;101550.38;;;5.81
62611;BMP280;48683;48.084;17.272;2022-11-14T00:56:16;101546.34;;;5.74
62611;BMP280;48683;48.084;17.272;2022-11-14T00:58:41;101541.19;;;5.61
62611;BMP280;48683;48.084;17.272;2022-11-14T01:01:07;101538.38;;;5.66
62611;BMP280;48683;48.084;17.272;2022-11-14T01:03:32;101530.38;;;5.66
62611;BMP280;48683;48.084;17.272;2022-11-14T01:06:01;101526.94;;;5.65
62611;BMP280;48683;48.084;17.272;2022-11-14T01:08:27;101527.56;;;5.62
62611;BMP280;48683;48.084;17.272;2022-11-14T01:10:52;101522.56;;;5.61
62611;BMP280;48683;48.084;17.272;2022-11-14T01:13:17;101524.75;;;5.67
62611;BMP280;48683;48.084;17.272;2022-11-14T01:15:44;101527.41;;;5.67
62611;BMP280;48683;48.084;17.272;2022-11-14T01:18:10;101528.31;;;5.71
62611;BMP280;48683;48.084;17.272;2022-11-14T01:20:37;101523.66;;;5.60
62611;BMP280;48683;48.084;17.272;2022-11-14T01:23:02;101512.09;;;5.56
62611;BMP280;48683;48.084;17.272;2022-11-14T01:25:27;101515.38;;;5.53
62611;BMP280;48683;48.084;17.272;2022-11-14T01:27:52;101499.78;;;5.34
62611;BMP280;48683;48.084;17.272;2022-11-14T01:30:18;101506.00;;;5.47
62611;BMP280;48683;48.084;17.272;2022-11-14T01:32:43;101503.66;;;5.45
62611;BMP280;48683;48.084;17.272;2022-11-14T01:35:08;101503.47;;;5.50
62611;BMP280;48683;48.084;17.272;2022-11-14T01:37:33;101505.84;;;5.52
62611;BMP280;48683;48.084;17.272;2022-11-14T01:39:58;101498.66;;;5.44
62611;BMP280;48683;48.084;17.272;2022-11-14T01:42:24;101496.63;;;5.41
62611;BMP280;48683;48.084;17.272;2022-11-14T01:44:50;101496.81;;;5.36
62611;BMP280;48683;48.084;17.272;2022-11-14T01:47:20;101490.84;;;5.30
62611;BMP280;48683;48.084;17.272;2022-11-14T01:49:47;101491.03;;;5.25
62611;BMP280;48683;48.084;17.272;2022-11-14T01:52:15;101491.84;;;5.17
62611;BMP280;48683;48.084;17.272;2022-11-14T01:54:45;101492.63;;;5.17
62611;BMP280;48683;48.084;17.272;2022-11-14T01:57:12;101488.06;;;5.18
62611;BMP280;48683;48.084;17.272;2022-11-14T01:59:40;101492.16;;;5.15
62611;BMP280;48683;48.084;17.272;2022-11-14T02:02:11;101487.63;;;5.16
62611;BMP280;48683;48.084;17.272;2022-11-14T02:04:39;101488.69;;;5.15
62611;BMP280;48683;48.084;17.272;2022-11-14T02:07:06;101495.91;;;5.14
62611;BMP280;48683;48.084;17.272;2022-11-14T02:09:33;101488.84;;;5.27
62611;BMP280;48683;48.084;17.272;2022-11-14T02:11:59;101486.47;;;5.25
62611;BMP280;48683;48.084;17.272;2022-11-14T02:14:26;101483.66;;;5.31
62611;BMP280;48683;48.084;17.272;2022-11-14T02:16:51;101488.03;;;5.35
62611;BMP280;48683;48.084;17.272;2022-11-14T02:19:17;101491.19;;;5.29
62611;BMP280;48683;48.084;17.272;2022-11-14T02:21:42;101491.31;;;5.41
62611;BMP280;48683;48.084;17.272;2022-11-14T02:24:10;101492.53;;;5.43
62611;BMP280;48683;48.084;17.272;2022-11-14T02:26:36;101485.97;;;5.41
62611;BMP280;48683;48.084;17.272;2022-11-14T02:29:02;101485.66;;;5.42
62611;BMP280;48683;48.084;17.272;2022-11-14T02:31:28;101477.22;;;5.40
62611;BMP280;48683;48.084;17.272;2022-11-14T02:33:53;101475.13;;;5.46
62611;BMP280;48683;48.084;17.272;2022-11-14T02:36:18;101475.00;;;5.42
62611;BMP280;48683;48.084;17.272;2022-11-14T02:38:43;101480.59;;;5.49
62611;BMP280;48683;48.084;17.272;2022-11-14T02:41:10;101486.16;;;5.36
62611;BMP280;48683;48.084;17.272;2022-11-14T02:43:35;101485.72;;;5.25
62611;BMP280;48683;48.084;17.272;2022-11-14T02:46:00;101484.41;;;5.40
62611;BMP280;48683;48.084;17.272;2022-11-14T02:48:26;101486.25;;;5.48
62611;BMP280;48683;48.084;17.272;2022-11-14T02:50:51;101492.38;;;5.48
62611;BMP280;48683;48.084;17.272;2022-11-14T02:53:16;101478.44;;;5.43
62611;BMP280;48683;48.084;17.272;2022-11-14T02:55:41;101477.63;;;5.51
62611;BMP280;48683;48.084;17.272;2022-11-14T02:58:07;101481.53;;;5.53
62611;BMP280;48683;48.084;17.272;2022-11-14T03:00:32;101481.22;;;5.55
62611;BMP280;48683;48.084;17.272;2022-11-14T03:02:57;101480.56;;;5.58
62611;BMP280;48683;48.084;17.272;2022-11-14T03:05:23;101477.31;;;5.52
62611;BMP280;48683;48.084;17.272;2022-11-14T03:07:51;101475.88;;;5.55
62611;BMP280;48683;48.084;17.272;2022-11-14T03:10:16;101483.59;;;5.48
62611;BMP280;48683;48.084;17.272;2022-11-14T03:12:41;101478.00;;;5.41
62611;BMP280;48683;48.084;17.272;2022-11-14T03:15:07;101474.41;;;5.37
62611;BMP280;48683;48.084;17.272;2022-11-14T03:17:32;101473.63;;;5.36
62611;BMP280;48683;48.084;17.272;2022-11-14T03:19:58;101475.00;;;5.42
62611;BMP280;48683;48.084;17.272;2022-11-14T03:22:23;101474.72;;;5.35
62611;BMP280;48683;48.084;17.272;2022-11-14T03:24:48;101473.91;;;5.43
62611;BMP280;48683;48.084;17.272;2022-11-14T03:27:13;101473.28;;;5.38
62611;BMP280;48683;48.084;17.272;2022-11-14T03:29:39;101473.63;;;5.36
62611;BMP280;48683;48.084;17.272;2022-11-14T03:32:04;101471.25;;;5.43
62611;BMP280;48683;48.084;17.272;2022-11-14T03:34:29;101475.28;;;5.49
62611;BMP280;48683;48.084;17.272;2022-11-14T03:36:54;101472.47;;;5.46
62611;BMP280;48683;48.084;17.272;2022-11-14T03:39:20;101462.09;;;5.53
62611;BMP280;48683;48.084;17.272;2022-11-14T03:41:45;101461.13;;;5.57
62611;BMP280;48683;48.084;17.272;2022-11-14T03:44:10;101469.41;;;5.64
62611;BMP280;48683;48.084;17.272;2022-11-14T03:46:35;101458.44;;;5.66
62611;BMP280;48683;48.084;17.272;2022-11-14T03:49:01;101458.75;;;5.64
62611;BMP280;48683;48.084;17.272;2022-11-14T03:51:26;101457.66;;;5.65
62611;BMP280;48683;48.084;17.272;2022-11-14T03:53:51;101449.66;;;5.65
62611;BMP280;48683;48.084;17.272;2022-11-14T03:56:16;101451.09;;;5.63
62611;BMP280;48683;48.084;17.272;2022-11-14T03:58:41;101453.28;;;5.61
62611;BMP280;48683;48.084;17.272;2022-11-14T04:01:07;101440.75;;;5.61
62611;BMP280;48683;48.084;17.272;2022-11-14T04:03:32;101440.44;;;5.63
62611;BMP280;48683;48.084;17.272;2022-11-14T04:05:57;101432.31;;;5.59
62611;BMP280;48683;48.084;17.272;2022-11-14T04:08:22;101428.06;;;5.58
62611;BMP280;48683;48.084;17.272;2022-11-14T04:10:47;101433.22;;;5.63
62611;BMP280;48683;48.084;17.272;2022-11-14T04:13:13;101430.88;;;5.62
62611;BMP280;48683;48.084;17.272;2022-11-14T04:15:38;101429.31;;;5.61
62611;BMP280;48683;48.084;17.272;2022-11-14T04:18:04;101426.31;;;5.62
62611;BMP280;48683;48.084;17.272;2022-11-14T04:20:29;101417.38;;;5.67
62611;BMP280;48683;48.084;17.272;2022-11-14T04:22:54;101419.69;;;5.68
62611;BMP280;48683;48.084;17.272;2022-11-14T04:25:19;101415.81;;;5.66
62611;BMP280;48683;48.084;17.272;2022-11-14T04:27:44;101428.03;;;5.67
62611;BMP280;48683;48.084;17.272;2022-11-14T04:30:10;101430.69;;;5.67
62611;BMP280;48683;48.084;17.272;2022-11-14T04:32:35;101415.28;;;5.72
62611;BMP280;48683;48.084;17.272;2022-11-14T04:35:00;101418.59;;;5.69
62611;BMP280;48683;48.084;17.272;2022-11-14T04:37:26;101421.25;;;5.69
62611;BMP280;48683;48.084;17.272;2022-11-14T04:39:51;101420.94;;;5.71
62611;BMP280;48683;48.084;17.272;2022-11-14T04:42:16;101423.41;;;5.76
62611;BMP280;48683;48.084;17.272;2022-11-14T04:44:41;101415.94;;;5.69
62611;BMP280;48683;48.084;17.272;2022-11-14T04:47:06;101409.50;;;5.70
62611;BMP280;48683;48.084;17.272;2022-11-14T04:49:32;101415.50;;;5.67
62611;BMP280;48683;48.084;17.272;2022-11-14T04:51:57;101409.59;;;5.53
62611;BMP280;48683;48.084;17.272;2022-11-14T04:54:22;101409.88;;;5.60
62611;BMP280;48683;48.084;17.272;2022-11-14T04:56:47;101399.72;;;5.54
62611;BMP280;48683;48.084;17.272;2022-11-14T04:59:13;101408.38;;;5.51
62611;BMP280;48683;48.084;17.272;2022-11-14T05:01:38;101409.31;;;5.46
62611;BMP280;48683;48.084;17.272;2022-11-14T05:04:03;101408.06;;;5.52
62611;BMP280;48683;48.084;17.272;2022-11-14T05:06:29;101397.41;;;5.52
62611;BMP280;48683;48.084;17.272;2022-11-14T05:08:54;101412.59;;;5.52
62611;BMP280;48683;48.084;17.272;2022-11-14T05:11:19;101415.06;;;5.57
62611;BMP280;48683;48.084;17.272;2022-11-14T05:13:45;101398.94;;;5.53
62611;BMP280;48683;48.084;17.272;2022-11-14T05:16:10;101407.53;;;5.59
62611;BMP280;48683;48.084;17.272;2022-11-14T05:18:36;101398.94;;;5.53
62611;BMP280;48683;48.084;17.272;2022-11-14T05:21:01;101401.16;;;5.51
62611;BMP280;48683;48.084;17.272;2022-11-14T05:23:26;101392.41;;;5.42
62611;BMP280;48683;48.084;17.272;2022-11-14T05:28:43;101394.03;;;5.35
62611;BMP280;48683;48.084;17.272;2022-11-14T05:31:09;101396.88;;;5.30
62611;BMP280;48683;48.084;17.272;2022-11-14T05:33:35;101392.53;;;5.25
62611;BMP280;48683;48.084;17.272;2022-11-14T05:36:01;101392.84;;;5.23
62611;BMP280;48683;48.084;17.272;2022-11-14T05:38:27;101392.03;;;5.23
62611;BMP280;48683;48.084;17.272;2022-11-14T05:40:52;101398.97;;;5.15
62611;BMP280;48683;48.084;17.272;2022-11-14T05:43:17;101397.09;;;5.16
62611;BMP280;48683;48.084;17.272;2022-11-14T05:45:42;101398.66;;;5.17
62611;BMP280;48683;48.084;17.272;2022-11-14T05:48:07;101399.91;;;5.19
62611;BMP280;48683;48.084;17.272;2022-11-14T05:50:33;101402.69;;;5.23
62611;BMP280;48683;48.084;17.272;2022-11-14T05:52:58;101399.25;;;5.22
62611;BMP280;48683;48.084;17.272;2022-11-14T05:55:23;101398.16;;;5.23
62611;BMP280;48683;48.084;17.272;2022-11-14T05:57:48;101400.66;;;5.29
62611;BMP280;48683;48.084;17.272;2022-11-14T06:00:14;101404.13;;;5.20
62611;BMP280;48683;48.084;17.272;2022-11-14T06:02:39;101404.41;;;5.28
62611;BMP280;48683;48.084;17.272;2022-11-14T06:05:04;101408.16;;;5.26
62611;BMP280;48683;48.084;17.272;2022-11-14T06:07:29;101403.91;;;5.34
62611;BMP280;48683;48.084;17.272;2022-11-14T06:09:55;101402.44;;;5.45
62611;BMP280;48683;48.084;17.272;2022-11-14T06:12:20;101396.66;;;5.43
62611;BMP280;48683;48.084;17.272;2022-11-14T06:14:45;101396.94;;;5.50
62611;BMP280;48683;48.084;17.272;2022-11-14T06:17:10;101401.94;;;5.52
62611;BMP280;48683;48.084;17.272;2022-11-14T06:19:35;101401.66;;;5.45
62611;BMP280;48683;48.084;17.272;2022-11-14T06:22:01;101396.78;;;5.47
62611;BMP280;48683;48.084;17.272;2022-11-14T06:24:26;101407.88;;;5.49
62611;BMP280;48683;48.084;17.272;2022-11-14T06:26:51;101403.03;;;5.51
62611;BMP280;48683;48.084;17.272;2022-11-14T06:29:16;101416.81;;;5.53
62611;BMP280;48683;48.084;17.272;2022-11-14T06:31:41;101409.16;;;5.51
62611;BMP280;48683;48.084;17.272;2022-11-14T06:34:06;101418.19;;;5.59
62611;BMP280;48683;48.084;17.272;2022-11-14T06:36:32;101411.81;;;5.51
62611;BMP280;48683;48.084;17.272;2022-11-14T06:38:57;101407.06;;;5.57
62611;BMP280;48683;48.084;17.272;2022-11-14T06:41:22;101408.41;;;5.42
62611;BMP280;48683;48.084;17.272;2022-11-14T06:43:48;101405.59;;;5.39
62611;BMP280;48683;48.084;17.272;2022-11-14T06:46:15;101402.03;;;5.35
62611;BMP280;48683;48.084;17.272;2022-11-14T06:48:41;101407.56;;;5.21
62611;BMP280;48683;48.084;17.272;2022-11-14T06:51:06;101404.28;;;5.24
62611;BMP280;48683;48.084;17.272;2022-11-14T06:53:32;101407.56;;;5.21
62611;BMP280;48683;48.084;17.272;2022-11-14T06:55:58;101414.44;;;5.22
62611;BMP280;48683;48.084;17.272;2022-11-14T06:58:24;101412.84;;;5.30
62611;BMP280;48683;48.084;17.272;2022-11-14T07:00:50;101417.50;;;5.41
62611;BMP280;48683;48.084;17.272;2022-11-14T07:03:15;101421.53;;;5.47
62611;BMP280;48683;48.084;17.272;2022-11-14T07:05:40;101415.84;;;5.57
62611;BMP280;48683;48.084;17.272;2022-11-14T07:08:05;101416.19;;;5.56
62611;BMP280;48683;48.084;17.272;2022-11-14T07:10:31;101417.13;;;5.51
62611;BMP280;48683;48.084;17.272;2022-11-14T07:12:56;101417.13;;;5.51
62611;BMP280;48683;48.084;17.272;2022-11-14T07:15:21;101418.50;;;5.57
62611;BMP280;48683;48.084;17.272;2022-11-14T07:17:46;101423.06;;;5.57
62611;BMP280;48683;48.084;17.272;2022-11-14T07:20:13;101425.44;;;5.50
62611;BMP280;48683;48.084;17.272;2022-11-14T07:22:38;101429.97;;;5.49
62611;BMP280;48683;48.084;17.272;2022-11-14T07:25:03;101426.25;;;5.42
62611;BMP280;48683;48.084;17.272;2022-11-14T07:27:28;101438.75;;;5.50
62611;BMP280;48683;48.084;17.272;2022-11-14T07:29:54;101434.50;;;5.57
62611;BMP280;48683;48.084;17.272;2022-11-14T07:32:19;101435.13;;;5.54
62611;BMP280;48683;48.084;17.272;2022-11-14T07:34:44;101442.81;;;5.56
62611;BMP280;48683;48.084;17.272;2022-11-14T07:37:09;101440.25;;;5.68
62611;BMP280;48683;48.084;17.272;2022-11-14T07:39:34;101448.31;;;5.80
62611;BMP280;48683;48.084;17.272;2022-11-14T07:42:00;101449.44;;;5.79
62611;BMP280;48683;48.084;17.272;2022-11-14T07:44:25;101445.78;;;5.84
62611;BMP280;48683;48.084;17.272;2022-11-14T07:46:50;101442.97;;;5.89
62611;BMP280;48683;48.084;17.272;2022-11-14T07:49:15;101435.19;;;5.75
62611;BMP280;48683;48.084;17.272;2022-11-14T07:51:41;101436.91;;;5.80
62611;BMP280;48683;48.084;17.272;2022-11-14T07:54:08;101429.91;;;5.66
62611;BMP280;48683;48.084;17.272;2022-11-14T07:56:34;101430.22;;;5.65
62611;BMP280;48683;48.084;17.272;2022-11-14T07:58:59;101424.19;;;5.56
62611;BMP280;48683;48.084;17.272;2022-11-14T08:01:24;101439.03;;;5.57
62611;BMP280;48683;48.084;17.272;2022-11-14T08:03:49;101437.50;;;5.56
62611;BMP280;48683;48.084;17.272;2022-11-14T08:06:15;101436.50;;;5.60
62611;BMP280;48683;48.084;17.272;2022-11-14T08:08:40;101435.69;;;5.68
62611;BMP280;48683;48.084;17.272;2022-11-14T08:11:05;101434.13;;;5.67
62611;BMP280;48683;48.084;17.272;2022-11-14T08:13:31;101434.22;;;5.80
62611;BMP280;48683;48.084;17.272;2022-11-14T08:15:56;101436.25;;;5.83
62611;BMP280;48683;48.084;17.272;2022-11-14T08:18:21;101440.31;;;5.89
62611;BMP280;48683;48.084;17.272;2022-11-14T08:20:47;101429.34;;;5.82
62611;BMP280;48683;48.084;17.272;2022-11-14T08:23:12;101427.31;;;5.87
62611;BMP280;48683;48.084;17.272;2022-11-14T08:25:38;101423.47;;;5.97
62611;BMP280;48683;48.084;17.272;2022-11-14T08:28:03;101425.75;;;5.86
62611;BMP280;48683;48.084;17.272;2022-11-14T08:30:28;101423.16;;;5.98
62611;BMP280;48683;48.084;17.272;2022-11-14T08:32:53;101430.75;;;6.08
62611;BMP280;48683;48.084;17.272;2022-11-14T08:35:19;101422.88;;;6.12
62611;BMP280;48683;48.084;17.272;2022-11-14T08:37:44;101409.63;;;6.03
62611;BMP280;48683;48.084;17.272;2022-11-14T08:40:10;101422.38;;;6.18
62611;BMP280;48683;48.084;17.272;2022-11-14T08:42:35;101419.72;;;5.98
62611;BMP280;48683;48.084;17.272;2022-11-14T08:45:01;101412.28;;;6.03
62611;BMP280;48683;48.084;17.272;2022-11-14T08:47:26;101411.91;;;6.13
62611;BMP280;48683;48.084;17.272;2022-11-14T08:49:51;101410.94;;;5.97
62611;BMP280;48683;48.084;17.272;2022-11-14T08:52:16;101412.81;;;5.97
62611;BMP280;48683;48.084;17.272;2022-11-14T08:54:41;101405.66;;;6.09
62611;BMP280;48683;48.084;17.272;2022-11-14T08:57:07;101411.44;;;6.11
62611;BMP280;48683;48.084;17.272;2022-11-14T08:59:32;101403.38;;;6.20
62611;BMP280;48683;48.084;17.272;2022-11-14T09:01:57;101411.50;;;6.24
62611;BMP280;48683;48.084;17.272;2022-11-14T09:04:22;101410.16;;;6.17
62611;BMP280;48683;48.084;17.272;2022-11-14T09:06:48;101409.63;;;6.24
62611;BMP280;48683;48.084;17.272;2022-11-14T09:09:13;101411.25;;;6.37
62611;BMP280;48683;48.084;17.272;2022-11-14T09:11:38;101414.53;;;6.34
62611;BMP280;48683;48.084;17.272;2022-11-14T09:14:03;101416.81;;;6.44
62611;BMP280;48683;48.084;17.272;2022-11-14T09:16:29;101414.59;;;6.46
62611;BMP280;48683;48.084;17.272;2022-11-14T09:18:54;101409.13;;;6.43
62611;BMP280;48683;48.084;17.272;2022-11-14T09:21:19;101403.19;;;6.58
62611;BMP280;48683;48.084;17.272;2022-11-14T09:23:47;101406.72;;;6.50
62611;BMP280;48683;48.084;17.272;2022-11-14T09:26:12;101404.88;;;6.62
62611;BMP280;48683;48.084;17.272;2022-11-14T09:28:38;101399.22;;;6.64
62611;BMP280;48683;48.084;17.272;2022-11-14T09:31:04;101405.72;;;6.87
62611;BMP280;48683;48.084;17.272;2022-11-14T09:33:30;101392.06;;;7.01
62611;BMP280;48683;48.084;17.272;2022-11-14T09:35:56;101369.13;;;7.12
62611;BMP280;48683;48.084;17.272;2022-11-14T09:38:21;101380.06;;;7.31
62611;BMP280;48683;48.084;17.272;2022-11-14T09:43:31;101375.63;;;7.23
62611;BMP280;48683;48.084;17.272;2022-11-14T09:46:03;101375.94;;;7.34
62611;BMP280;48683;48.084;17.272;2022-11-14T09:48:29;101364.38;;;7.30
62611;BMP280;48683;48.084;17.272;2022-11-14T09:51:04;101363.47;;;7.38
62611;BMP280;48683;48.084;17.272;2022-11-14T09:53:32;101367.25;;;7.49
62611;BMP280;48683;48.084;17.272;2022-11-14T09:55:58;101370.00;;;7.64
62611;BMP280;48683;48.084;17.272;2022-11-14T09:58:23;101358.91;;;7.90
62611;BMP280;48683;48.084;17.272;2022-11-14T10:00:52;101363.47;;;8.30
62611;BMP280;48683;48.084;17.272;2022-11-14T10:03:28;101349.78;;;8.31
62611;BMP280;48683;48.084;17.272;2022-11-14T10:06:14;101350.81;;;8.42
62611;BMP280;48683;48.084;17.272;2022-11-14T10:08:57;101346.84;;;8.36
62611;BMP280;48683;48.084;17.272;2022-11-14T10:16:52;101326.25;;;8.68
62611;BMP280;48683;48.084;17.272;2022-11-14T10:19:30;101321.91;;;8.95
62611;BMP280;48683;48.084;17.272;2022-11-14T10:22:07;101319.91;;;9.07
62611;BMP280;48683;48.084;17.272;2022-11-14T10:24:39;101317.06;;;9.16
62611;BMP280;48683;48.084;17.272;2022-11-14T10:27:12;101310.06;;;9.12
62611;BMP280;48683;48.084;17.272;2022-11-14T10:29:48;101306.28;;;9.13
62611;BMP280;48683;48.084;17.272;2022-11-14T10:32:26;101298.66;;;9.15
62611;BMP280;48683;48.084;17.272;2022-11-14T10:34:57;101304.44;;;9.17
62611;BMP280;48683;48.084;17.272;2022-11-14T10:37:32;101306.19;;;9.44
62611;BMP280;48683;48.084;17.272;2022-11-14T10:40:16;101300.22;;;9.70
62611;BMP280;48683;48.084;17.272;2022-11-14T10:42:43;101300.00;;;9.78
62611;BMP280;48683;48.084;17.272;2022-11-14T10:45:20;101283.59;;;9.80
62611;BMP280;48683;48.084;17.272;2022-11-14T10:47:53;101283.72;;;9.87
62611;BMP280;48683;48.084;17.272;2022-11-14T10:50:24;101274.38;;;10.00
62611;BMP280;48683;48.084;17.272;2022-11-14T10:52:51;101262.63;;;10.08
62611;BMP280;48683;48.084;17.272;2022-11-14T10:55:18;101267.03;;;10.16
62611;BMP280;48683;48.084;17.272;2022-11-14T10:57:44;101259.41;;;10.41
62611;BMP280;48683;48.084;17.272;2022-11-14T11:00:10;101245.09;;;10.33
62611;BMP280;48683;48.084;17.272;2022-11-14T11:02:50;101243.25;;;10.60
62611;BMP280;48683;48.084;17.272;2022-11-14T11:05:16;101242.34;;;10.53
62611;BMP280;48683;48.084;17.272;2022-11-14T11:07:45;101240.41;;;10.50
62611;BMP280;48683;48.084;17.272;2022-11-14T11:10:29;101228.19;;;10.56
62611;BMP280;48683;48.084;17.272;2022-11-14T11:13:14;101238.13;;;10.78
62611;BMP280;48683;48.084;17.272;2022-11-14T11:15:52;101232.84;;;10.81
62611;BMP280;48683;48.084;17.272;2022-11-14T11:20:44;101225.31;;;10.94
62611;BMP280;48683;48.084;17.272;2022-11-14T11:23:25;101230.03;;;11.01
62611;BMP280;48683;48.084;17.272;2022-11-14T11:26:01;101214.34;;;11.06
62611;BMP280;48683;48.084;17.272;2022-11-14T11:28:31;101202.16;;;11.12
62611;BMP280;48683;48.084;17.272;2022-11-14T11:30:57;101204.47;;;11.14
62611;BMP280;48683;48.084;17.272;2022-11-14T11:33:26;101193.06;;;11.20
62611;BMP280;48683;48.084;17.272;2022-11-14T11:35:53;101197.34;;;11.28
62611;BMP280;48683;48.084;17.272;2022-11-14T11:38:19;101190.78;;;11.22
62611;BMP280;48683;48.084;17.272;2022-11-14T11:40:46;101186.00;;;11.42
62611;BMP280;48683;48.084;17.272;2022-11-14T11:45:40;101176.50;;;11.52
62611;BMP280;48683;48.084;17.272;2022-11-14T11:48:18;101178.41;;;11.48
62611;BMP280;48683;48.084;17.272;2022-11-14T11:50:43;101181.59;;;11.60
62611;BMP280;48683;48.084;17.272;2022-11-14T11:53:16;101175.91;;;11.65
62611;BMP280;48683;48.084;17.272;2022-11-14T11:55:47;101163.97;;;11.63
62611;BMP280;48683;48.084;17.272;2022-11-14T12:00:40;101150.28;;;11.75
62611;BMP280;48683;48.084;17.272;2022-11-14T12:03:08;101150.41;;;11.56
62611;BMP280;48683;48.084;17.272;2022-11-14T12:08:02;101153.47;;;11.51
62611;BMP280;48683;48.084;17.272;2022-11-14T12:10:38;101143.88;;;11.53
62611;BMP280;48683;48.084;17.272;2022-11-14T12:18:13;101134.69;;;11.54
62611;BMP280;48683;48.084;17.272;2022-11-14T12:20:45;101128.47;;;11.50
62611;BMP280;48683;48.084;17.272;2022-11-14T12:28:25;101122.19;;;11.72
62611;BMP280;48683;48.084;17.272;2022-11-14T12:30:59;101106.75;;;11.66
62611;BMP280;48683;48.084;17.272;2022-11-14T12:33:35;101112.25;;;11.76
62611;BMP280;48683;48.084;17.272;2022-11-14T12:36:03;101110.38;;;11.84
62611;BMP280;48683;48.084;17.272;2022-11-14T12:41:07;101103.84;;;11.81
62611;BMP280;48683;48.084;17.272;2022-11-14T12:43:33;101092.34;;;11.88
62611;BMP280;48683;48.084;17.272;2022-11-14T12:46:00;101083.47;;;11.84
62611;BMP280;48683;48.084;17.272;2022-11-14T12:50:54;101092.34;;;11.88
62611;BMP280;48683;48.084;17.272;2022-11-14T13:01:19;101075.16;;;12.00
62611;BMP280;48683;48.084;17.272;2022-11-14T13:06:26;101072.66;;;12.28
62611;BMP280;48683;48.084;17.272;2022-11-14T13:11:43;101062.69;;;12.32
62611;BMP280;48683;48.084;17.272;2022-11-14T13:14:28;101064.63;;;12.35
62611;BMP280;48683;48.084;17.272;2022-11-14T13:19:59;101047.63;;;12.24
62611;BMP280;48683;48.084;17.272;2022-11-14T13:22:43;101051.13;;;12.31
62611;BMP280;48683;48.084;17.272;2022-11-14T13:25:27;101049.22;;;12.28
62611;BMP280;48683;48.084;17.272;2022-11-14T13:27:52;101045.78;;;12.35
62611;BMP280;48683;48.084;17.272;2022-11-14T13:30:23;101037.66;;;12.24
62611;BMP280;48683;48.084;17.272;2022-11-14T13:33:04;101033.84;;;12.36
62611;BMP280;48683;48.084;17.272;2022-11-14T13:35:36;101036.56;;;12.40
62611;BMP280;48683;48.084;17.272;2022-11-14T13:40:50;101031.16;;;12.36
62611;BMP280;48683;48.084;17.272;2022-11-14T13:46:09;101020.41;;;12.36
62611;BMP280;48683;48.084;17.272;2022-11-14T13:51:22;101011.13;;;12.30
62611;BMP280;48683;48.084;17.272;2022-11-14T13:53:48;101016.53;;;12.33
62611;BMP280;48683;48.084;17.272;2022-11-14T13:56:32;101010.78;;;12.38
62611;BMP280;48683;48.084;17.272;2022-11-14T14:01:49;101013.03;;;12.29
62611;BMP280;48683;48.084;17.272;2022-11-14T14:14:32;101004.44;;;12.03
62611;BMP280;48683;48.084;17.272;2022-11-14T14:17:03;101004.41;;;11.99
62611;BMP280;48683;48.084;17.272;2022-11-14T14:24:55;100989.56;;;11.68
62611;BMP280;48683;48.084;17.272;2022-11-14T14:27:23;100991.88;;;11.66
62611;BMP280;48683;48.084;17.272;2022-11-14T14:29:56;100990.59;;;11.53
62611;BMP280;48683;48.084;17.272;2022-11-14T14:32:22;100986.38;;;11.52
62611;BMP280;48683;48.084;17.272;2022-11-14T14:34:48;100988.19;;;11.41
62611;BMP280;48683;48.084;17.272;2022-11-14T14:37:20;100987.81;;;11.39
62611;BMP280;48683;48.084;17.272;2022-11-14T14:39:57;100985.78;;;11.29
62611;BMP280;48683;48.084;17.272;2022-11-14T14:42:22;100988.81;;;11.24
62611;BMP280;48683;48.084;17.272;2022-11-14T14:44:48;100991.81;;;11.15
62611;BMP280;48683;48.084;17.272;2022-11-14T14:47:17;100988.94;;;10.98
62611;BMP280;48683;48.084;17.272;2022-11-14T14:49:51;100995.06;;;10.94
62611;BMP280;48683;48.084;17.272;2022-11-14T14:54:54;100992.03;;;10.66
62611;BMP280;48683;48.084;17.272;2022-11-14T14:57:20;100993.56;;;10.64
62611;BMP280;48683;48.084;17.272;2022-11-14T14:59:45;100989.97;;;10.53
62611;BMP280;48683;48.084;17.272;2022-11-14T15:02:15;100994.72;;;10.33
62611;BMP280;48683;48.084;17.272;2022-11-14T15:04:40;100993.84;;;10.25
62611;BMP280;48683;48.084;17.272;2022-11-14T15:07:15;100993.38;;;10.20
62611;BMP280;48683;48.084;17.272;2022-11-14T15:09:55;100997.06;;;10.12
62611;BMP280;48683;48.084;17.272;2022-11-14T15:12:22;100997.75;;;10.05
62611;BMP280;48683;48.084;17.272;2022-11-14T15:14:48;100998.59;;;9.83